Here is the Quick Look data you requested

The Data originates at the National Weather Service, and is made available here by the UAlbany Department of Atmospheric and Environmental Sciences

Surface Observations

KAPG 240955Z 00000KT 7SM MIFG BKN080 BKN140 17/17 A2986 RMK AO2A SLP114
 T01700168 $=
KAPG 241055Z 00000KT 10SM SCT080 BKN110 BKN200 19/18 A2988 RMK AO2A SLP121
 T01850180 $=
KAPG 241155Z 00000KT 9SM SCT080 BKN110 OVC200 21/19 A2989 RMK AO2A LTG DSNT SE
 AND W SLP124 T02080187 10208 20169 52012 $=
KAPG 241255Z 02005KT 10SM SCT080 SCT110 24/18 A2989 RMK AO2A SLP124 T02350177 $=
KAPG 241355Z 07005KT 10SM BKN060 25/17 A2990 RMK AO2A SLP127 T02510168 $=
KAPG 241455Z 08007KT 10SM SCT060 BKN120 25/15 A2989 RMK AO2A SLP124 T02540151
 55000 $=
KAPG 241555Z 06004KT 9SM BKN120 28/14 A2988 RMK AO2A SLP121 T02770143 $=
KAPG 241655Z 08004KT 8SM BKN070 BKN150 28/15 A2987=
KAPG 241755Z 00000KT 10SM SCT040 BKN090 28/15 A2985=
KAPG 241855Z 14004KT 10SM SCT040 29/14 A2984=
KAPG 241955Z 23004KT 10SM FEW040 29/15 A2983=
KAPG 242055Z 22005KT 9SM CLR 29/15 A2982 RMK AO2A LAST=